Time;durP1;ratioP1;P1;durP2;ratioP2;P2;SDS_P1;SDS_P2;PMS_P1;PMS_P2;Temp;Humidity;BMP_temperature;BMP_pressure;BME280_temperature;BME280_humidity;BME280_pressure;Samples;Min_cycle;Max_cycle;Signal;HPM_P1;HPM_P2
2023/05/17 00:00:35;;;;;;;22.73;5.35;;;9.30;99.90;;;;;;5056671;28;20115;-75
2023/05/17 00:03:00;;;;;;;24.80;5.85;;;9.20;99.90;;;;;;5090144;28;20185;-75
2023/05/17 00:05:26;;;;;;;23.50;4.95;;;9.20;99.90;;;;;;5086084;28;20055;-74
2023/05/17 00:07:52;;;;;;;20.35;5.40;;;9.20;99.90;;;;;;5090449;28;20160;-75
2023/05/17 00:10:17;;;;;;;19.58;5.10;;;9.10;99.90;;;;;;5073108;28;20055;-75
2023/05/17 00:12:43;;;;;;;22.00;5.47;;;9.20;99.90;;;;;;5090888;28;20059;-75
2023/05/17 00:15:09;;;;;;;21.05;5.20;;;9.10;99.90;;;;;;5072184;28;20040;-75
2023/05/17 00:17:36;;;;;;;18.20;4.75;;;9.10;99.90;;;;;;5071987;28;20071;-75
2023/05/17 00:20:04;;;;;;;25.65;5.70;;;9.20;99.90;;;;;;5072836;28;20051;-75
2023/05/17 00:22:30;;;;;;;21.75;5.20;;;9.20;99.90;;;;;;5072045;28;20055;-75
2023/05/17 00:24:55;;;;;;;17.30;5.13;;;9.20;99.90;;;;;;5090457;28;20044;-77
2023/05/17 00:27:21;;;;;;;21.50;5.20;;;9.30;99.90;;;;;;5068306;28;20071;-73
2023/05/17 00:29:47;;;;;;;18.98;4.82;;;9.30;99.90;;;;;;5023724;28;20071;-74
2023/05/17 00:32:12;;;;;;;25.15;4.45;;;9.30;99.90;;;;;;5078979;28;20082;-73
2023/05/17 00:34:38;;;;;;;16.33;4.70;;;9.40;99.90;;;;;;5068930;28;20519;-73
2023/05/17 00:37:04;;;;;;;20.08;4.50;;;9.40;99.90;;;;;;5075403;28;20056;-73
2023/05/17 00:39:29;;;;;;;16.70;4.22;;;9.40;99.90;;;;;;5057012;28;20060;-74
2023/05/17 00:41:55;;;;;;;23.65;5.20;;;9.40;99.90;;;;;;5068369;28;20052;-73
2023/05/17 00:44:20;;;;;;;22.45;4.65;;;9.30;99.90;;;;;;5053121;28;20080;-74
2023/05/17 00:46:46;;;;;;;19.88;4.40;;;9.30;99.90;;;;;;5089825;28;20044;-73
2023/05/17 00:49:12;;;;;;;18.23;4.00;;;9.20;99.90;;;;;;5068393;28;20537;-74
2023/05/17 00:51:39;;;;;;;25.42;4.93;;;9.20;99.90;;;;;;5065251;28;20048;-75
2023/05/17 00:54:05;;;;;;;24.45;4.75;;;9.10;99.90;;;;;;5044265;28;20047;-75
2023/05/17 00:56:31;;;;;;;20.02;4.07;;;9.10;99.90;;;;;;5055821;28;20052;-75
2023/05/17 00:58:57;;;;;;;19.23;3.70;;;9.00;99.90;;;;;;5070685;28;20048;-74
2023/05/17 01:01:25;;;;;;;15.32;3.50;;;9.00;99.90;;;;;;5060009;28;20420;-75
2023/05/17 01:03:51;;;;;;;18.08;3.85;;;8.90;99.90;;;;;;5071057;28;20113;-75
2023/05/17 01:06:16;;;;;;;20.77;3.42;;;8.90;99.90;;;;;;5089667;28;20040;-75
2023/05/17 01:08:43;;;;;;;21.13;3.83;;;8.80;99.90;;;;;;5055683;28;20056;-75
2023/05/17 01:11:35;;;;;;;21.52;3.78;;;8.80;99.90;;;;;;5071560;28;20056;-74
2023/05/17 01:14:22;;;;;;;15.70;3.28;;;8.70;99.90;;;;;;5078925;28;20044;-75
2023/05/17 01:16:50;;;;;;;;;;;8.60;99.90;;;;;;5072262;28;20044;-75
2023/05/17 01:19:46;;;;;;;15.68;3.35;;;8.60;99.90;;;;;;5091515;28;19978;-75
2023/05/17 01:22:19;;;;;;;16.35;3.13;;;8.60;99.90;;;;;;5084882;28;20048;-75
2023/05/17 01:24:54;;;;;;;22.92;4.20;;;8.50;99.90;;;;;;5070392;28;20374;-75
2023/05/17 01:27:21;;;;;;;23.85;3.88;;;8.50;99.90;;;;;;5072155;28;20052;-75
2023/05/17 01:29:48;;;;;;;23.30;3.40;;;8.50;99.90;;;;;;5038095;28;20052;-75
2023/05/17 01:32:15;;;;;;;20.38;4.05;;;8.40;99.90;;;;;;5070076;28;20377;-75
2023/05/17 01:34:41;;;;;;;16.92;3.10;;;8.40;99.90;;;;;;5075127;28;20087;-75
2023/05/17 01:37:06;;;;;;;20.25;3.85;;;8.40;99.90;;;;;;5092650;28;20094;-75
2023/05/17 01:39:32;;;;;;;20.08;3.17;;;8.40;99.90;;;;;;5092935;28;20148;-75
2023/05/17 01:42:01;;;;;;;24.27;3.22;;;8.30;99.90;;;;;;5084633;28;20052;-74
2023/05/17 01:44:42;;;;;;;20.20;2.92;;;8.30;99.90;;;;;;5054807;28;20048;-75
2023/05/17 01:47:49;;;;;;;19.73;3.85;;;8.30;99.90;;;;;;5067034;28;20059;-75
2023/05/17 01:50:18;;;;;;;19.75;3.63;;;8.30;99.90;;;;;;5031486;28;20087;-74
2023/05/17 01:52:58;;;;;;;19.45;3.53;;;8.30;99.90;;;;;;5075304;28;20048;-75
2023/05/17 01:55:29;;;;;;;22.98;3.20;;;8.30;99.90;;;;;;5075402;28;20044;-75
2023/05/17 01:57:56;;;;;;;21.17;3.50;;;8.30;99.90;;;;;;5071494;28;20052;-75
2023/05/17 02:00:25;;;;;;;26.63;3.97;;;8.30;99.90;;;;;;5089608;28;20071;-75
2023/05/17 02:02:50;;;;;;;22.42;3.60;;;8.30;99.90;;;;;;5055240;28;20462;-75
2023/05/17 02:05:16;;;;;;;18.30;3.80;;;8.40;99.90;;;;;;5067705;28;20091;-75
2023/05/17 02:07:42;;;;;;;22.70;3.45;;;8.40;99.90;;;;;;5093557;28;20048;-74
2023/05/17 02:10:08;;;;;;;23.67;4.07;;;8.40;99.90;;;;;;5093260;28;20054;-75
2023/05/17 02:12:33;;;;;;;19.83;4.15;;;8.40;99.90;;;;;;5093429;28;20055;-75
2023/05/17 02:14:59;;;;;;;25.45;3.70;;;8.50;99.90;;;;;;5092685;28;20047;-75
2023/05/17 02:17:25;;;;;;;20.40;3.80;;;8.50;99.90;;;;;;5073457;28;20070;-75
2023/05/17 02:19:50;;;;;;;26.60;3.95;;;8.50;99.90;;;;;;5057433;28;20052;-75
2023/05/17 02:22:16;;;;;;;21.55;3.47;;;8.60;99.90;;;;;;5081774;28;20401;-75
2023/05/17 02:24:42;;;;;;;21.48;3.00;;;8.60;99.90;;;;;;5088930;28;20099;-76
2023/05/17 02:27:07;;;;;;;18.02;3.17;;;8.60;99.90;;;;;;5088431;28;20110;-74
2023/05/17 02:29:33;;;;;;;16.00;3.35;;;8.50;99.90;;;;;;5072367;28;20047;-75
2023/05/17 02:31:59;;;;;;;17.73;3.28;;;8.50;99.90;;;;;;5072935;28;20057;-75
2023/05/17 02:34:25;;;;;;;20.33;3.40;;;8.50;99.90;;;;;;5088936;28;20173;-75
2023/05/17 02:36:51;;;;;;;19.50;4.05;;;8.40;99.90;;;;;;5060919;28;20065;-75
2023/05/17 02:39:17;;;;;;;19.25;3.33;;;8.40;99.90;;;;;;5092306;28;20463;-75
2023/05/17 02:41:42;;;;;;;20.10;3.70;;;8.30;99.90;;;;;;5093032;28;20105;-75
2023/05/17 02:44:08;;;;;;;22.05;3.13;;;8.30;99.90;;;;;;5077887;28;20070;-75
2023/05/17 02:46:34;;;;;;;18.25;3.17;;;8.20;99.90;;;;;;5074475;28;20047;-75
2023/05/17 02:49:00;;;;;;;17.58;2.95;;;8.10;99.90;;;;;;5057033;28;20477;-75
2023/05/17 02:51:25;;;;;;;16.20;3.33;;;8.10;99.90;;;;;;5071790;28;20037;-75
2023/05/17 02:53:51;;;;;;;15.75;2.88;;;8.00;99.90;;;;;;5037965;28;20047;-75
2023/05/17 02:56:16;;;;;;;21.08;3.55;;;7.90;99.90;;;;;;5066871;28;20168;-75
2023/05/17 02:58:42;;;;;;;16.73;3.67;;;7.80;99.90;;;;;;5067495;28;20044;-75
2023/05/17 03:01:08;;;;;;;24.40;4.47;;;7.80;99.90;;;;;;5037483;28;20046;-74
2023/05/17 03:03:34;;;;;;;22.10;3.90;;;7.70;99.90;;;;;;5054248;28;20050;-74
2023/05/17 03:06:03;;;;;;;19.05;3.63;;;7.70;99.90;;;;;;5054331;28;20478;-75
2023/05/17 03:08:30;;;;;;;21.75;3.28;;;7.60;99.90;;;;;;5053842;28;20076;-75
2023/05/17 03:10:56;;;;;;;24.30;5.45;;;7.60;99.90;;;;;;5072353;28;20048;-75
2023/05/17 03:13:21;;;;;;;18.17;4.07;;;7.60;99.90;;;;;;5062730;28;20503;-75
2023/05/17 03:15:47;;;;;;;22.83;3.63;;;7.40;99.90;;;;;;5092331;28;20408;-75
2023/05/17 03:18:13;;;;;;;19.40;3.47;;;7.50;99.90;;;;;;5071443;28;20516;-75
2023/05/17 03:20:38;;;;;;;22.55;3.35;;;7.50;99.90;;;;;;5074038;28;20700;-75
2023/05/17 03:23:04;;;;;;;16.70;3.78;;;7.50;99.90;;;;;;5072064;28;20048;-75
2023/05/17 03:25:30;;;;;;;22.60;3.55;;;7.40;99.90;;;;;;5070382;28;20048;-75
2023/05/17 03:27:55;;;;;;;23.42;3.25;;;7.40;99.90;;;;;;5053589;28;20048;-75
2023/05/17 03:30:21;;;;;;;17.20;3.30;;;7.30;99.90;;;;;;5053226;28;20080;-75
2023/05/17 03:32:47;;;;;;;20.55;3.72;;;7.30;99.90;;;;;;5055256;28;20500;-75
2023/05/17 03:35:12;;;;;;;25.98;4.45;;;7.20;99.90;;;;;;5086788;28;20496;-74
2023/05/17 03:37:38;;;;;;;17.23;3.55;;;7.20;99.90;;;;;;5067059;28;20090;-75
2023/05/17 03:40:04;;;;;;;31.08;4.25;;;7.20;99.90;;;;;;5057157;28;20056;-75
2023/05/17 03:42:30;;;;;;;25.30;4.40;;;7.10;99.90;;;;;;5073292;28;20584;-75
2023/05/17 03:44:56;;;;;;;26.33;3.85;;;7.10;99.90;;;;;;5039981;28;20051;-75
2023/05/17 03:47:22;;;;;;;23.75;3.85;;;7.20;99.90;;;;;;5060525;28;20158;-74
2023/05/17 03:49:48;;;;;;;25.67;3.85;;;7.20;99.90;;;;;;5053581;28;20086;-75
2023/05/17 03:52:14;;;;;;;18.55;3.67;;;7.30;99.90;;;;;;5070426;28;20052;-74
2023/05/17 03:54:39;;;;;;;26.92;3.92;;;7.40;99.90;;;;;;5064584;28;20509;-75
2023/05/17 03:57:05;;;;;;;21.35;3.53;;;7.40;99.90;;;;;;5037417;28;20087;-75
2023/05/17 03:59:31;;;;;;;20.55;3.60;;;7.50;99.90;;;;;;5089347;28;20047;-75
2023/05/17 04:01:56;;;;;;;18.75;3.20;;;7.50;99.90;;;;;;5091315;28;20056;-75
2023/05/17 04:04:22;;;;;;;27.10;3.70;;;7.60;99.90;;;;;;5090361;28;20048;-74
2023/05/17 04:06:48;;;;;;;17.23;3.40;;;7.70;99.90;;;;;;5073203;28;20048;-75
2023/05/17 04:09:14;;;;;;;20.77;3.85;;;7.70;99.90;;;;;;5056247;28;20050;-74
2023/05/17 04:11:40;;;;;;;16.98;3.13;;;7.70;99.90;;;;;;5091444;28;20048;-75
2023/05/17 04:14:06;;;;;;;20.70;3.83;;;7.80;99.90;;;;;;5090207;28;20051;-75
2023/05/17 04:16:32;;;;;;;14.98;3.42;;;7.80;99.90;;;;;;5072597;28;20377;-75
2023/05/17 04:18:59;;;;;;;22.35;3.50;;;7.80;99.90;;;;;;5072692;28;20128;-75
2023/05/17 04:21:25;;;;;;;17.27;3.60;;;7.80;99.90;;;;;;5053943;28;20040;-74
2023/05/17 04:23:51;;;;;;;18.08;3.60;;;7.90;99.90;;;;;;5101881;28;20140;-75
2023/05/17 04:26:17;;;;;;;20.33;3.38;;;7.90;99.90;;;;;;5052676;28;20056;-74
2023/05/17 04:28:42;;;;;;;22.33;3.33;;;7.90;99.90;;;;;;5052069;28;20048;-75
2023/05/17 04:31:09;;;;;;;19.55;2.92;;;7.90;99.90;;;;;;5053229;28;20540;-75
2023/05/17 04:33:35;;;;;;;23.77;3.28;;;7.90;99.90;;;;;;5077739;28;20048;-75
2023/05/17 04:36:02;;;;;;;19.08;2.97;;;7.90;99.90;;;;;;5052562;28;20080;-75
2023/05/17 04:38:28;;;;;;;15.63;3.25;;;8.00;99.90;;;;;;5052324;28;20098;-75
2023/05/17 04:40:59;;;;;;;;;;;8.00;99.90;;;;;;5053294;28;20047;-75
2023/05/17 04:43:26;;;;;;;16.67;3.55;;;8.00;99.90;;;;;;5070870;28;20369;-75
2023/05/17 04:45:56;;;;;;;21.98;3.17;;;8.00;99.90;;;;;;5053120;28;20048;-75
2023/05/17 04:48:22;;;;;;;15.77;2.97;;;8.00;99.90;;;;;;5051789;28;20056;-74
2023/05/17 04:50:48;;;;;;;22.42;3.10;;;8.00;99.90;;;;;;5070322;28;20047;-75
2023/05/17 04:53:16;;;;;;;17.55;3.50;;;8.00;99.90;;;;;;5085455;28;20063;-74
2023/05/17 04:55:42;;;;;;;22.50;3.28;;;8.00;99.90;;;;;;5052568;28;20101;-75
2023/05/17 04:58:08;;;;;;;14.10;2.42;;;8.00;99.90;;;;;;5069691;28;20044;-75
2023/05/17 05:00:34;;;;;;;20.70;3.28;;;8.00;99.90;;;;;;5073253;28;20781;-75
2023/05/17 05:02:59;;;;;;;14.57;2.90;;;8.00;99.90;;;;;;5053430;28;20048;-75
2023/05/17 05:05:25;;;;;;;20.25;2.70;;;8.10;99.90;;;;;;5089771;28;20378;-75
2023/05/17 05:07:51;;;;;;;14.98;3.13;;;8.10;99.90;;;;;;5072405;28;20051;-75
2023/05/17 05:10:17;;;;;;;16.65;3.80;;;8.10;99.90;;;;;;5056445;28;20265;-74
2023/05/17 05:12:43;;;;;;;14.02;2.67;;;8.10;99.90;;;;;;5066989;28;20066;-75
2023/05/17 05:15:09;;;;;;;17.55;3.22;;;8.10;99.90;;;;;;5076178;28;20119;-75
2023/05/17 05:17:35;;;;;;;17.75;2.42;;;8.10;99.90;;;;;;5093160;28;20040;-75
2023/05/17 05:20:01;;;;;;;18.73;2.88;;;8.10;99.90;;;;;;5094657;28;20059;-75
2023/05/17 05:22:27;;;;;;;15.60;2.67;;;8.20;99.90;;;;;;5059107;28;20059;-75
2023/05/17 05:24:54;;;;;;;12.50;3.03;;;8.20;99.90;;;;;;5074241;28;20392;-75
2023/05/17 05:27:20;;;;;;;10.25;2.38;;;8.20;99.90;;;;;;5058802;28;20048;-75
2023/05/17 05:29:45;;;;;;;12.38;2.50;;;8.20;99.90;;;;;;5093431;28;20050;-75
2023/05/17 05:32:11;;;;;;;16.42;2.17;;;8.20;99.90;;;;;;5075835;28;20473;-74
2023/05/17 05:34:37;;;;;;;11.20;2.30;;;8.30;99.90;;;;;;5041405;28;20176;-75
2023/05/17 05:37:03;;;;;;;13.95;2.50;;;8.30;99.90;;;;;;5033331;28;20045;-75
2023/05/17 05:39:29;;;;;;;24.17;2.97;;;8.40;99.90;;;;;;5064831;28;20085;-75
2023/05/17 05:41:55;;;;;;;15.43;2.45;;;8.40;99.90;;;;;;5089641;28;20097;-75
2023/05/17 05:44:20;;;;;;;12.00;1.95;;;8.50;99.90;;;;;;5038240;28;20048;-74
2023/05/17 05:46:46;;;;;;;13.77;1.92;;;8.50;99.90;;;;;;5059875;28;20128;-75
2023/05/17 05:49:11;;;;;;;13.35;2.08;;;8.60;99.90;;;;;;5055571;28;20058;-74
2023/05/17 05:51:37;;;;;;;12.32;1.90;;;8.60;99.90;;;;;;5045338;28;20508;-75
2023/05/17 05:54:03;;;;;;;14.43;2.10;;;8.60;99.90;;;;;;5058809;28;20616;-75
2023/05/17 05:56:28;;;;;;;10.30;1.85;;;8.60;99.90;;;;;;5074954;28;20400;-75
2023/05/17 05:58:56;;;;;;;9.93;2.03;;;8.70;99.90;;;;;;5092151;28;20091;-75
2023/05/17 06:01:22;;;;;;;12.05;1.83;;;8.60;99.90;;;;;;5054846;28;20048;-74
2023/05/17 06:03:47;;;;;;;10.90;1.90;;;8.60;99.90;;;;;;5072977;28;20075;-75
2023/05/17 06:06:15;;;;;;;14.00;2.15;;;8.60;99.90;;;;;;5073120;28;20048;-75
2023/05/17 06:08:42;;;;;;;12.30;1.88;;;8.70;99.90;;;;;;5072703;28;20048;-75
2023/05/17 06:11:08;;;;;;;12.70;1.70;;;8.70;99.90;;;;;;5045315;28;20094;-75
2023/05/17 06:13:33;;;;;;;10.82;1.83;;;8.70;99.90;;;;;;5037600;28;20048;-75
2023/05/17 06:15:59;;;;;;;8.55;1.60;;;8.80;99.90;;;;;;5055724;28;20036;-75
2023/05/17 06:18:25;;;;;;;7.88;1.48;;;8.80;99.90;;;;;;5054211;28;20095;-75
2023/05/17 06:20:50;;;;;;;10.00;1.52;;;8.80;99.90;;;;;;5049257;28;20123;-75
2023/05/17 06:23:16;;;;;;;13.35;2.47;;;8.90;99.90;;;;;;5058522;28;20044;-75
2023/05/17 06:25:41;;;;;;;6.32;1.55;;;8.90;99.90;;;;;;5074619;28;20339;-75
2023/05/17 06:28:08;;;;;;;14.82;1.90;;;8.90;99.90;;;;;;5040290;28;20039;-75
2023/05/17 06:30:34;;;;;;;;;;;8.90;99.90;;;;;;5041773;28;20044;-74
2023/05/17 06:32:59;;;;;;;10.10;2.05;;;8.90;99.90;;;;;;5053597;28;20282;-76
2023/05/17 06:35:25;;;;;;;11.90;1.77;;;9.00;99.90;;;;;;5072488;28;20474;-76
2023/05/17 06:37:51;;;;;;;9.45;1.60;;;9.10;99.90;;;;;;5057860;28;20133;-74
2023/05/17 06:40:16;;;;;;;7.47;1.45;;;9.20;99.90;;;;;;5058738;28;20056;-74
2023/05/17 06:42:42;;;;;;;12.95;1.65;;;9.30;99.90;;;;;;5067311;28;20040;-76
2023/05/17 06:45:08;;;;;;;10.57;1.55;;;9.40;99.90;;;;;;5087730;28;20109;-76
2023/05/17 06:47:34;;;;;;;;;;;9.50;99.90;;;;;;5054074;28;20041;-75
2023/05/17 06:50:00;;;;;;;11.60;1.80;;;9.50;99.90;;;;;;5055109;28;19973;-76
2023/05/17 06:52:26;;;;;;;;;;;9.60;99.90;;;;;;5038923;28;20090;-76
2023/05/17 06:54:51;;;;;;;7.18;1.52;;;9.60;99.90;;;;;;5060175;28;19967;-76
2023/05/17 06:57:17;;;;;;;12.00;2.00;;;9.70;99.90;;;;;;5069369;28;20040;-76
2023/05/17 06:59:43;;;;;;;8.45;1.50;;;9.90;99.90;;;;;;5056169;28;20040;-75
2023/05/17 07:02:09;;;;;;;9.60;1.90;;;10.00;99.90;;;;;;5073892;28;20184;-75
2023/05/17 07:04:35;;;;;;;12.98;1.95;;;10.10;99.90;;;;;;5040584;28;20040;-75
2023/05/17 07:07:01;;;;;;;14.00;2.25;;;10.20;99.90;;;;;;5074301;28;20056;-75
2023/05/17 07:09:26;;;;;;;9.48;2.20;;;10.20;99.90;;;;;;5068104;28;20045;-76
2023/05/17 07:11:52;;;;;;;9.13;1.67;;;10.30;99.90;;;;;;5038061;28;20058;-76
2023/05/17 07:14:18;;;;;;;8.02;1.77;;;10.40;99.90;;;;;;5057724;28;20444;-76
2023/05/17 07:16:43;;;;;;;12.93;1.92;;;10.40;99.90;;;;;;5073569;28;20071;-75
2023/05/17 07:19:09;;;;;;;11.30;2.15;;;10.40;99.90;;;;;;5073788;28;20173;-75
2023/05/17 07:21:35;;;;;;;12.90;1.95;;;10.40;99.90;;;;;;5051797;28;20124;-75
2023/05/17 07:24:01;;;;;;;12.25;1.70;;;10.40;99.90;;;;;;5021168;28;20053;-76
2023/05/17 07:26:26;;;;;;;8.65;1.98;;;10.50;99.90;;;;;;5044938;28;20135;-77
2023/05/17 07:28:52;;;;;;;8.77;1.55;;;10.50;99.90;;;;;;5055915;28;20036;-76
2023/05/17 07:31:18;;;;;;;7.70;1.67;;;10.50;99.90;;;;;;5057440;28;20354;-75
2023/05/17 07:33:43;;;;;;;10.13;1.92;;;10.50;99.90;;;;;;5072998;28;20040;-77
2023/05/17 07:36:09;;;;;;;13.88;1.88;;;10.50;99.90;;;;;;5056328;28;20047;-76
2023/05/17 07:38:35;;;;;;;8.75;2.05;;;10.60;99.90;;;;;;5076772;28;20377;-75
2023/05/17 07:41:02;;;;;;;11.82;2.08;;;10.60;99.90;;;;;;5038942;28;20052;-75
2023/05/17 07:43:28;;;;;;;14.88;2.45;;;10.70;99.90;;;;;;5052384;28;20044;-78
2023/05/17 07:45:53;;;;;;;13.38;2.03;;;10.90;99.90;;;;;;5037173;28;20151;-83
2023/05/17 07:48:19;;;;;;;14.60;2.03;;;11.00;99.90;;;;;;5051796;28;20044;-84
2023/05/17 07:50:45;;;;;;;17.65;2.50;;;11.10;99.90;;;;;;5056284;28;20054;-82
2023/05/17 07:53:11;;;;;;;9.80;1.92;;;11.20;99.90;;;;;;5042076;28;20497;-82
2023/05/17 07:55:37;;;;;;;10.20;2.25;;;11.20;99.90;;;;;;5058489;28;20174;-81
2023/05/17 07:58:03;;;;;;;17.67;2.72;;;11.30;99.90;;;;;;5049597;28;20144;-82
2023/05/17 08:00:28;;;;;;;13.45;3.20;;;11.30;99.90;;;;;;5053013;28;20456;-78
2023/05/17 08:02:55;;;;;;;17.67;2.28;;;11.40;99.90;;;;;;5048584;28;20663;-82
2023/05/17 08:05:21;;;;;;;8.63;2.20;;;11.50;99.90;;;;;;5035786;28;20044;-84
2023/05/17 08:07:47;;;;;;;16.77;2.60;;;11.60;99.90;;;;;;5052329;28;20094;-84
2023/05/17 08:10:12;;;;;;;10.23;2.08;;;11.70;99.90;;;;;;5085555;28;20101;-83
2023/05/17 08:12:38;;;;;;;13.75;2.67;;;11.80;99.90;;;;;;5044229;28;20040;-80
2023/05/17 08:15:04;;;;;;;14.73;2.38;;;11.90;99.90;;;;;;5086212;28;20051;-77
2023/05/17 08:17:30;;;;;;;;;;;12.00;99.90;;;;;;5036001;28;20044;-81
2023/05/17 08:19:56;;;;;;;12.13;2.00;;;12.00;99.90;;;;;;5086177;28;19950;-82
2023/05/17 08:22:21;;;;;;;14.73;2.58;;;12.10;99.90;;;;;;5079214;28;20043;-80
2023/05/17 08:24:47;;;;;;;11.45;2.35;;;12.10;99.90;;;;;;5055378;28;20059;-80
2023/05/17 08:27:12;;;;;;;10.35;2.40;;;12.10;99.90;;;;;;5065821;28;20051;-82
2023/05/17 08:29:38;;;;;;;15.95;2.58;;;12.10;99.90;;;;;;5048076;28;20048;-81
2023/05/17 08:32:04;;;;;;;13.60;2.25;;;12.10;99.90;;;;;;5073001;28;20048;-83
2023/05/17 08:34:30;;;;;;;13.77;2.20;;;12.10;99.90;;;;;;5072146;28;20048;-83
2023/05/17 08:36:56;;;;;;;15.18;3.05;;;12.20;99.90;;;;;;5058617;28;20089;-83
2023/05/17 08:39:22;;;;;;;10.40;2.60;;;12.20;99.90;;;;;;5072115;28;20151;-79
2023/05/17 08:41:48;;;;;;;21.63;2.80;;;12.30;99.90;;;;;;5072433;28;20120;-82
2023/05/17 08:44:17;;;;;;;14.45;2.50;;;12.30;99.90;;;;;;5071459;28;20050;-83
2023/05/17 08:46:51;;;;;;;13.68;2.33;;;12.30;99.90;;;;;;5071956;28;20051;-83
2023/05/17 08:49:21;;;;;;;14.30;2.50;;;12.40;99.90;;;;;;5072160;28;20070;-82
2023/05/17 08:51:52;;;;;;;18.67;2.60;;;12.40;99.90;;;;;;5069057;28;20048;-81
2023/05/17 08:54:18;;;;;;;14.23;2.50;;;12.50;99.90;;;;;;5065719;28;20044;-82
2023/05/17 08:56:44;;;;;;;16.65;2.72;;;12.50;99.90;;;;;;5055245;28;20051;-83
2023/05/17 08:59:11;;;;;;;14.75;2.78;;;12.50;99.90;;;;;;5041809;28;20044;-80
2023/05/17 09:01:40;;;;;;;14.52;2.45;;;12.60;99.90;;;;;;5062444;28;20387;-76
2023/05/17 09:04:08;;;;;;;16.40;3.05;;;12.60;99.90;;;;;;5069484;28;20485;-83
2023/05/17 09:06:34;;;;;;;17.08;2.33;;;12.60;99.90;;;;;;5071466;28;20301;-74
2023/05/17 09:09:00;;;;;;;14.80;2.65;;;12.70;99.90;;;;;;5050637;28;20485;-75
2023/05/17 09:11:33;;;;;;;10.93;2.10;;;12.80;99.90;;;;;;5046915;28;20071;-78
2023/05/17 09:14:04;;;;;;;12.88;2.42;;;12.80;99.90;;;;;;5071015;28;20055;-78
2023/05/17 09:16:32;;;;;;;11.20;2.40;;;12.90;99.90;;;;;;5069288;28;20040;-77
2023/05/17 09:18:58;;;;;;;15.40;2.67;;;12.90;99.90;;;;;;5070841;28;20109;-78
2023/05/17 09:21:24;;;;;;;;;;;13.00;99.90;;;;;;5029475;28;20048;-82
2023/05/17 09:23:51;;;;;;;15.25;2.28;;;13.20;99.90;;;;;;5071435;28;19919;-78
2023/05/17 09:26:17;;;;;;;12.60;2.22;;;13.40;99.90;;;;;;5067789;28;20078;-77
2023/05/17 09:28:43;;;;;;;11.52;2.20;;;13.50;99.90;;;;;;5084185;28;20740;-79
2023/05/17 09:31:14;;;;;;;12.20;2.30;;;13.60;99.90;;;;;;5069305;28;20129;-80
2023/05/17 09:33:47;;;;;;;13.32;1.88;;;13.60;99.90;;;;;;5051838;28;20060;-78
2023/05/17 09:36:22;;;;;;;16.42;2.63;;;13.60;99.90;;;;;;5060234;28;20044;-79
2023/05/17 09:38:58;;;;;;;12.98;2.13;;;13.70;99.10;;;;;;5027369;28;20535;-79
2023/05/17 09:41:31;;;;;;;12.77;2.28;;;13.80;99.90;;;;;;5052563;28;20109;-79
2023/05/17 09:43:59;;;;;;;10.27;1.83;;;14.00;99.90;;;;;;5064895;28;20063;-79
2023/05/17 09:46:25;;;;;;;10.82;2.20;;;14.20;99.90;;;;;;5054990;28;20500;-79
2023/05/17 09:48:55;;;;;;;12.23;2.20;;;14.20;99.70;;;;;;5054640;28;20115;-79
2023/05/17 09:51:38;;;;;;;11.02;2.35;;;14.20;97.40;;;;;;5072012;28;20096;-79
2023/05/17 09:54:05;;;;;;;13.02;2.13;;;14.20;95.00;;;;;;5054943;28;20143;-79
2023/05/17 09:56:33;;;;;;;12.63;1.90;;;14.20;97.00;;;;;;5057321;28;20048;-79
2023/05/17 09:59:09;;;;;;;11.50;2.25;;;14.30;96.80;;;;;;5085504;28;20047;-79
2023/05/17 10:01:39;;;;;;;8.43;1.90;;;14.30;96.40;;;;;;5060354;28;20051;-79
2023/05/17 10:04:09;;;;;;;15.60;2.58;;;14.40;96.10;;;;;;5058224;28;20290;-79
2023/05/17 10:06:40;;;;;;;15.90;2.60;;;14.40;95.70;;;;;;5053486;28;20071;-79
2023/05/17 10:09:11;;;;;;;10.80;2.42;;;14.40;94.80;;;;;;5055246;28;20503;-79
2023/05/17 10:11:39;;;;;;;11.13;2.58;;;14.40;94.80;;;;;;5055979;28;20149;-81
2023/05/17 10:14:10;;;;;;;10.40;1.85;;;14.50;94.50;;;;;;5086667;28;20040;-79
2023/05/17 10:16:38;;;;;;;13.75;2.30;;;14.50;95.50;;;;;;5055275;28;20087;-79
2023/05/17 10:19:04;;;;;;;10.85;2.00;;;14.60;95.20;;;;;;5050233;28;20335;-80
2023/05/17 10:21:31;;;;;;;16.23;2.83;;;14.60;94.80;;;;;;5058684;28;20413;-80
2023/05/17 10:24:02;;;;;;;13.98;2.28;;;14.70;93.70;;;;;;5103617;28;20082;-80
2023/05/17 10:26:28;;;;;;;12.88;2.10;;;14.70;93.90;;;;;;5038843;28;20474;-79
2023/05/17 10:29:04;;;;;;;12.77;2.25;;;14.70;94.80;;;;;;5056006;28;20070;-80
2023/05/17 10:31:35;;;;;;;16.42;2.75;;;14.80;93.80;;;;;;5075577;28;20048;-79
2023/05/17 10:34:02;;;;;;;17.17;2.40;;;14.80;94.10;;;;;;5074432;28;20044;-79
2023/05/17 10:36:28;;;;;;;16.02;2.60;;;14.80;94.70;;;;;;5104831;28;20059;-80
2023/05/17 10:38:55;;;;;;;16.85;2.60;;;14.60;93.50;;;;;;5042486;28;20405;-80
2023/05/17 10:41:25;;;;;;;14.60;2.78;;;14.40;93.60;;;;;;5040971;28;20056;-80
2023/05/17 10:43:52;;;;;;;12.88;2.33;;;14.40;94.30;;;;;;5054210;28;20131;-79
2023/05/17 10:46:22;;;;;;;12.32;2.40;;;14.50;94.30;;;;;;5058130;28;20067;-79
2023/05/17 10:48:50;;;;;;;10.90;1.83;;;14.70;92.80;;;;;;5074075;28;20087;-79
2023/05/17 10:51:31;;;;;;;12.75;2.33;;;14.90;91.60;;;;;;5103136;28;20048;-81
2023/05/17 10:54:07;;;;;;;8.25;2.38;;;15.00;90.90;;;;;;5050870;28;20287;-79
2023/05/17 10:56:33;;;;;;;6.50;1.92;;;15.00;90.00;;;;;;5061708;28;20063;-79
2023/05/17 10:59:17;;;;;;;;;;;15.00;90.40;;;;;;5070024;28;20044;-79
2023/05/17 11:01:59;;;;;;;12.80;1.80;;;14.90;83.10;;;;;;5074069;28;19959;-79
2023/05/17 11:04:30;;;;;;;10.63;1.90;;;15.00;88.70;;;;;;5074239;28;20048;-79
2023/05/17 11:07:15;;;;;;;10.75;2.25;;;15.10;89.00;;;;;;5055062;28;20044;-79
2023/05/17 11:10:07;;;;;;;12.98;2.50;;;15.40;86.00;;;;;;5071133;28;20106;-79
2023/05/17 11:12:36;;;;;;;7.45;2.13;;;15.70;86.20;;;;;;5098186;28;20520;-79
2023/05/17 11:15:10;;;;;;;8.98;1.90;;;15.90;83.40;;;;;;5072401;28;20118;-80
2023/05/17 11:17:42;;;;;;;7.25;1.77;;;15.90;79.60;;;;;;5056771;28;20044;-80
2023/05/17 11:20:31;;;;;;;7.85;1.75;;;15.70;79.50;;;;;;5057234;28;20081;-80
2023/05/17 11:23:15;;;;;;;8.60;2.22;;;15.70;81.30;;;;;;5067712;28;20052;-80
2023/05/17 11:25:41;;;;;;;7.50;1.80;;;16.00;81.80;;;;;;5059795;28;20084;-81
2023/05/17 11:28:16;;;;;;;7.30;1.90;;;16.40;81.30;;;;;;5056276;28;20112;-76
2023/05/17 11:30:49;;;;;;;12.85;1.92;;;16.60;78.20;;;;;;5096421;28;20052;-78
2023/05/17 11:33:16;;;;;;;11.75;2.15;;;16.60;76.70;;;;;;5059031;28;20064;-77
2023/05/17 11:35:43;;;;;;;5.68;1.55;;;16.70;75.50;;;;;;5063297;28;20098;-76
2023/05/17 11:38:29;;;;;;;9.77;1.90;;;16.80;76.80;;;;;;5065573;28;20601;-77
2023/05/17 11:40:55;;;;;;;10.77;1.70;;;16.90;72.60;;;;;;5066623;28;20187;-73
2023/05/17 11:43:27;;;;;;;12.07;1.90;;;17.00;74.40;;;;;;5054586;28;20517;-75
2023/05/17 11:46:00;;;;;;;10.10;1.88;;;17.40;74.70;;;;;;5066540;28;20135;-76
2023/05/17 11:48:26;;;;;;;7.30;1.73;;;17.60;74.10;;;;;;5050715;28;20046;-76
2023/05/17 11:50:54;;;;;;;7.80;1.63;;;17.80;73.80;;;;;;5033132;28;20059;-76
2023/05/17 11:53:20;;;;;;;7.05;2.03;;;17.80;71.30;;;;;;5017445;28;20051;-76
2023/05/17 11:55:49;;;;;;;6.07;1.50;;;17.80;69.50;;;;;;5064378;28;20055;-77
2023/05/17 11:58:16;;;;;;;7.15;1.73;;;18.00;68.30;;;;;;5068399;28;20046;-77
2023/05/17 12:00:43;;;;;;;8.60;2.10;;;18.60;67.30;;;;;;5052559;28;20499;-76
2023/05/17 12:03:21;;;;;;;10.82;1.85;;;19.10;66.50;;;;;;5068956;28;20053;-76
2023/05/17 12:05:49;;;;;;;8.60;1.92;;;19.40;64.40;;;;;;5052551;28;20543;-76
2023/05/17 12:08:20;;;;;;;5.72;1.60;;;19.30;65.10;;;;;;5069616;28;20052;-76
2023/05/17 12:10:51;;;;;;;5.47;1.60;;;19.10;62.70;;;;;;5039273;28;20060;-76
2023/05/17 12:13:18;;;;;;;10.32;2.17;;;18.90;62.80;;;;;;5048737;28;20048;-77
2023/05/17 12:15:50;;;;;;;7.05;1.75;;;19.00;64.20;;;;;;5035653;28;20044;-80
2023/05/17 12:18:16;;;;;;;9.35;2.10;;;19.60;64.10;;;;;;5038432;28;20047;-80
2023/05/17 12:20:58;;;;;;;10.38;2.30;;;20.40;63.50;;;;;;5066432;28;20048;-71
2023/05/17 12:23:30;;;;;;;7.53;1.90;;;21.20;57.20;;;;;;5061812;28;20058;-72
2023/05/17 12:26:04;;;;;;;9.63;1.98;;;21.10;58.30;;;;;;5068650;28;20045;-75
2023/05/17 12:28:30;;;;;;;11.32;2.13;;;21.00;57.70;;;;;;5059720;28;20052;-72
2023/05/17 12:30:57;;;;;;;8.15;1.60;;;21.30;58.80;;;;;;5051106;28;20053;-71
2023/05/17 12:33:26;;;;;;;7.70;1.52;;;21.80;58.20;;;;;;5048843;28;20517;-72
2023/05/17 12:35:52;;;;;;;11.77;1.95;;;21.80;56.00;;;;;;5054609;28;20394;-72
2023/05/17 12:38:19;;;;;;;9.93;2.00;;;21.90;56.50;;;;;;5075222;28;20089;-72
2023/05/17 12:40:45;;;;;;;8.32;1.80;;;22.30;56.70;;;;;;5090668;28;20048;-79
2023/05/17 12:43:11;;;;;;;9.48;1.75;;;22.70;55.80;;;;;;5054749;28;20048;-77
2023/05/17 12:45:40;;;;;;;7.90;1.67;;;22.70;54.40;;;;;;5072546;28;20054;-79
2023/05/17 12:48:06;;;;;;;6.13;1.70;;;22.70;53.40;;;;;;5055346;28;20044;-84